This is the latest recevied weather packets stored in our database for station/object G4KVI. If no packets are shown the sender has not sent any weather packets the latest 10 day(s).
| Time | Temp. | Humidity | Pressure | Rain* | Wind** | Luminosity | Snow |
|---|---|---|---|---|---|---|---|
| 1787923505 | 22.78° C | 61% | 1009 hPa | 0 mm | - | 212 W/m² | - |
| 1787923204 | 21.67° C | 63% | 1009 hPa | 0 mm | - | 744 W/m² | - |
| 1787922904 | 21.11° C | 68% | 1009 hPa | 0 mm | - | 270 W/m² | - |
| 1787922604 | 20.56° C | 71% | 1009 hPa | 0 mm | - | 800 W/m² | - |
| 1787922304 | 21.11° C | 69% | 1008.9 hPa | 0 mm | - | 715 W/m² | - |
| 1787922004 | 21.67° C | 68% | 1008.8 hPa | 0 mm | - | 127 W/m² | - |
| 1787921704 | 21.11° C | 70% | 1008.8 hPa | 0 mm | - | 208 W/m² | - |
| 1787921405 | 20.56° C | 70% | 1009 hPa | 0 mm | - | 762 W/m² | - |
| 1787921104 | 20.56° C | 70% | 1009.1 hPa | 0 mm | - | 827 W/m² | - |
| 1787920804 | 20° C | 72% | 1008.9 hPa | 0 mm | - | 860 W/m² | - |
| 1787920504 | 20.56° C | 70% | 1009.1 hPa | 0 mm | - | 496 W/m² | - |
| 1787920204 | 20° C | 71% | 1009 hPa | 0 mm | - | 565 W/m² | - |
| 1787919904 | 20° C | 72% | 1008.9 hPa | 0 mm | - | 427 W/m² | - |
| 1787919604 | 20.56° C | 73% | 1009 hPa | 0 mm | - | 652 W/m² | - |
| 1787919304 | 20.56° C | 69% | 1008.9 hPa | 0 mm | - | 445 W/m² | - |
| 1787919005 | 21.11° C | 66% | 1009 hPa | 0 mm | - | 381 W/m² | - |
| 1787918705 | 21.67° C | 65% | 1008.9 hPa | 0 mm | - | 389 W/m² | - |
| 1787918405 | 21.67° C | 62% | 1008.9 hPa | 0 mm | - | 384 W/m² | - |
| 1787918104 | 21.67° C | 63% | 1008.7 hPa | 0 mm | - | 724 W/m² | - |
| 1787917804 | 21.67° C | 63% | 1008.8 hPa | 0 mm | - | 569 W/m² | - |
| 1787917504 | 21.67° C | 62% | 1008.6 hPa | 0 mm | - | 647 W/m² | - |
| 1787917204 | 21.11° C | 65% | 1008.8 hPa | 0 mm | - | 570 W/m² | - |
| 1787916904 | 20.56° C | 67% | 1008.9 hPa | 0 mm | - | 796 W/m² | - |
| 1787916604 | 20° C | 67% | 1009.1 hPa | 0 mm | - | 214 W/m² | - |
| 1787916304 | 20.56° C | 67% | 1008.9 hPa | 0 mm | - | 149 W/m² | - |
* Rain latest hour (hover to see other rain measurements)
** Current wind speed in m/s (hover to see current wind gust speed)